sensor_id;sensor_type;location;lat;lon;timestamp;P1;durP1;ratioP1;P2;durP2;ratioP2
26271;SDS011;13997;48.902;12.472;2022-07-10T00:00:46;17.13;;;8.48;;
26271;SDS011;13997;48.902;12.472;2022-07-10T00:03:12;10.80;;;7.22;;
26271;SDS011;13997;48.902;12.472;2022-07-10T00:05:39;9.60;;;6.18;;
26271;SDS011;13997;48.902;12.472;2022-07-10T00:08:05;12.05;;;6.72;;
26271;SDS011;13997;48.902;12.472;2022-07-10T00:10:31;8.45;;;6.32;;
26271;SDS011;13997;48.902;12.472;2022-07-10T00:12:58;14.30;;;6.85;;
26271;SDS011;13997;48.902;12.472;2022-07-10T00:15:24;9.55;;;5.95;;
26271;SDS011;13997;48.902;12.472;2022-07-10T00:17:50;10.27;;;5.93;;
26271;SDS011;13997;48.902;12.472;2022-07-10T00:20:16;9.93;;;6.07;;
26271;SDS011;13997;48.902;12.472;2022-07-10T00:22:42;10.80;;;6.50;;
26271;SDS011;13997;48.902;12.472;2022-07-10T00:25:09;9.80;;;6.57;;
26271;SDS011;13997;48.902;12.472;2022-07-10T00:27:35;10.23;;;5.70;;
26271;SDS011;13997;48.902;12.472;2022-07-10T00:30:02;12.65;;;6.78;;
26271;SDS011;13997;48.902;12.472;2022-07-10T00:32:28;11.80;;;6.88;;
26271;SDS011;13997;48.902;12.472;2022-07-10T00:34:54;11.27;;;6.55;;
26271;SDS011;13997;48.902;12.472;2022-07-10T00:37:20;21.55;;;8.63;;
26271;SDS011;13997;48.902;12.472;2022-07-10T00:39:47;13.05;;;8.30;;
26271;SDS011;13997;48.902;12.472;2022-07-10T00:42:13;14.70;;;8.80;;
26271;SDS011;13997;48.902;12.472;2022-07-10T00:44:40;12.98;;;8.38;;
26271;SDS011;13997;48.902;12.472;2022-07-10T00:47:07;15.07;;;9.23;;
26271;SDS011;13997;48.902;12.472;2022-07-10T00:49:36;16.83;;;9.43;;
26271;SDS011;13997;48.902;12.472;2022-07-10T00:52:03;16.33;;;7.90;;
26271;SDS011;13997;48.902;12.472;2022-07-10T00:54:29;12.40;;;6.97;;
26271;SDS011;13997;48.902;12.472;2022-07-10T00:56:56;12.13;;;7.15;;
26271;SDS011;13997;48.902;12.472;2022-07-10T00:59:22;8.75;;;7.20;;
26271;SDS011;13997;48.902;12.472;2022-07-10T01:01:49;10.18;;;7.03;;
26271;SDS011;13997;48.902;12.472;2022-07-10T01:04:15;10.27;;;6.30;;
26271;SDS011;13997;48.902;12.472;2022-07-10T01:06:41;10.05;;;6.43;;
26271;SDS011;13997;48.902;12.472;2022-07-10T01:09:07;10.57;;;6.70;;
26271;SDS011;13997;48.902;12.472;2022-07-10T01:11:33;10.73;;;6.90;;
26271;SDS011;13997;48.902;12.472;2022-07-10T01:14:00;9.82;;;6.38;;
26271;SDS011;13997;48.902;12.472;2022-07-10T01:16:26;9.35;;;5.97;;
26271;SDS011;13997;48.902;12.472;2022-07-10T01:18:52;11.15;;;6.65;;
26271;SDS011;13997;48.902;12.472;2022-07-10T01:21:28;10.75;;;5.85;;
26271;SDS011;13997;48.902;12.472;2022-07-10T01:23:54;9.52;;;5.70;;
26271;SDS011;13997;48.902;12.472;2022-07-10T01:26:21;13.60;;;6.57;;
26271;SDS011;13997;48.902;12.472;2022-07-10T01:28:49;11.52;;;6.18;;
26271;SDS011;13997;48.902;12.472;2022-07-10T01:31:16;11.90;;;6.60;;
26271;SDS011;13997;48.902;12.472;2022-07-10T01:33:42;7.22;;;5.90;;
26271;SDS011;13997;48.902;12.472;2022-07-10T01:36:09;8.65;;;5.80;;
26271;SDS011;13997;48.902;12.472;2022-07-10T01:38:35;18.65;;;5.80;;
26271;SDS011;13997;48.902;12.472;2022-07-10T01:41:01;12.25;;;5.68;;
26271;SDS011;13997;48.902;12.472;2022-07-10T01:43:27;13.45;;;5.68;;
26271;SDS011;13997;48.902;12.472;2022-07-10T01:45:53;8.25;;;5.85;;
26271;SDS011;13997;48.902;12.472;2022-07-10T01:48:19;8.23;;;6.32;;
26271;SDS011;13997;48.902;12.472;2022-07-10T01:50:45;8.93;;;6.20;;
26271;SDS011;13997;48.902;12.472;2022-07-10T01:53:11;9.75;;;6.60;;
26271;SDS011;13997;48.902;12.472;2022-07-10T01:55:37;10.30;;;5.63;;
26271;SDS011;13997;48.902;12.472;2022-07-10T01:58:03;9.25;;;6.20;;
26271;SDS011;13997;48.902;12.472;2022-07-10T02:00:29;11.25;;;5.85;;
26271;SDS011;13997;48.902;12.472;2022-07-10T02:02:55;11.57;;;5.43;;
26271;SDS011;13997;48.902;12.472;2022-07-10T02:05:40;14.52;;;5.70;;
26271;SDS011;13997;48.902;12.472;2022-07-10T02:08:07;12.57;;;6.07;;
26271;SDS011;13997;48.902;12.472;2022-07-10T02:10:33;12.35;;;5.93;;
26271;SDS011;13997;48.902;12.472;2022-07-10T02:12:59;10.07;;;5.38;;
26271;SDS011;13997;48.902;12.472;2022-07-10T02:15:25;7.35;;;5.38;;
26271;SDS011;13997;48.902;12.472;2022-07-10T02:17:50;17.10;;;5.63;;
26271;SDS011;13997;48.902;12.472;2022-07-10T02:20:16;8.93;;;5.60;;
26271;SDS011;13997;48.902;12.472;2022-07-10T02:22:42;8.45;;;5.82;;
26271;SDS011;13997;48.902;12.472;2022-07-10T02:25:08;12.07;;;5.45;;
26271;SDS011;13997;48.902;12.472;2022-07-10T02:27:34;8.25;;;5.25;;
26271;SDS011;13997;48.902;12.472;2022-07-10T02:30:00;8.23;;;4.93;;
26271;SDS011;13997;48.902;12.472;2022-07-10T02:32:26;15.30;;;5.45;;
26271;SDS011;13997;48.902;12.472;2022-07-10T02:34:52;8.65;;;5.28;;
26271;SDS011;13997;48.902;12.472;2022-07-10T02:37:18;6.82;;;5.00;;
26271;SDS011;13997;48.902;12.472;2022-07-10T02:39:44;10.07;;;4.95;;
26271;SDS011;13997;48.902;12.472;2022-07-10T02:42:10;10.98;;;4.90;;
26271;SDS011;13997;48.902;12.472;2022-07-10T02:44:36;12.88;;;5.70;;
26271;SDS011;13997;48.902;12.472;2022-07-10T02:47:02;8.88;;;4.85;;
26271;SDS011;13997;48.902;12.472;2022-07-10T02:49:28;9.18;;;5.13;;
26271;SDS011;13997;48.902;12.472;2022-07-10T02:51:54;10.52;;;5.25;;
26271;SDS011;13997;48.902;12.472;2022-07-10T02:54:20;14.07;;;6.68;;
26271;SDS011;13997;48.902;12.472;2022-07-10T02:56:46;12.80;;;5.30;;
26271;SDS011;13997;48.902;12.472;2022-07-10T02:59:12;9.25;;;5.72;;
26271;SDS011;13997;48.902;12.472;2022-07-10T03:01:38;9.55;;;5.13;;
26271;SDS011;13997;48.902;12.472;2022-07-10T03:04:04;16.17;;;5.10;;
26271;SDS011;13997;48.902;12.472;2022-07-10T03:06:30;16.35;;;5.90;;
26271;SDS011;13997;48.902;12.472;2022-07-10T03:08:56;16.30;;;6.05;;
26271;SDS011;13997;48.902;12.472;2022-07-10T03:11:22;25.27;;;6.57;;
26271;SDS011;13997;48.902;12.472;2022-07-10T03:13:48;13.07;;;6.28;;
26271;SDS011;13997;48.902;12.472;2022-07-10T03:16:13;17.10;;;6.32;;
26271;SDS011;13997;48.902;12.472;2022-07-10T03:18:39;19.65;;;6.22;;
26271;SDS011;13997;48.902;12.472;2022-07-10T03:21:05;18.10;;;6.40;;
26271;SDS011;13997;48.902;12.472;2022-07-10T03:23:31;16.75;;;6.07;;
26271;SDS011;13997;48.902;12.472;2022-07-10T03:25:57;15.27;;;5.60;;
26271;SDS011;13997;48.902;12.472;2022-07-10T03:28:23;17.38;;;5.93;;
26271;SDS011;13997;48.902;12.472;2022-07-10T03:30:50;15.57;;;5.60;;
26271;SDS011;13997;48.902;12.472;2022-07-10T03:33:16;12.68;;;5.45;;
26271;SDS011;13997;48.902;12.472;2022-07-10T03:35:42;17.13;;;6.28;;
26271;SDS011;13997;48.902;12.472;2022-07-10T03:38:08;19.38;;;5.78;;
26271;SDS011;13997;48.902;12.472;2022-07-10T03:40:34;17.27;;;5.93;;
26271;SDS011;13997;48.902;12.472;2022-07-10T03:43:00;12.02;;;5.32;;
26271;SDS011;13997;48.902;12.472;2022-07-10T03:45:26;15.45;;;6.03;;
26271;SDS011;13997;48.902;12.472;2022-07-10T03:47:52;19.13;;;5.80;;
26271;SDS011;13997;48.902;12.472;2022-07-10T03:50:17;16.75;;;5.03;;
26271;SDS011;13997;48.902;12.472;2022-07-10T03:52:43;11.43;;;5.38;;
26271;SDS011;13997;48.902;12.472;2022-07-10T03:55:11;22.73;;;5.97;;
26271;SDS011;13997;48.902;12.472;2022-07-10T03:57:37;11.63;;;5.60;;
26271;SDS011;13997;48.902;12.472;2022-07-10T04:00:19;15.30;;;5.43;;
26271;SDS011;13997;48.902;12.472;2022-07-10T04:02:47;13.90;;;5.60;;
26271;SDS011;13997;48.902;12.472;2022-07-10T04:05:13;19.80;;;5.80;;
26271;SDS011;13997;48.902;12.472;2022-07-10T04:07:40;13.88;;;5.68;;
26271;SDS011;13997;48.902;12.472;2022-07-10T04:10:06;17.35;;;6.18;;
26271;SDS011;13997;48.902;12.472;2022-07-10T04:15:00;9.45;;;5.43;;
26271;SDS011;13997;48.902;12.472;2022-07-10T04:17:26;15.07;;;5.53;;
26271;SDS011;13997;48.902;12.472;2022-07-10T04:19:53;9.45;;;5.38;;
26271;SDS011;13997;48.902;12.472;2022-07-10T04:22:19;10.45;;;4.88;;
26271;SDS011;13997;48.902;12.472;2022-07-10T04:24:45;11.38;;;4.65;;
26271;SDS011;13997;48.902;12.472;2022-07-10T04:27:11;11.80;;;5.30;;
26271;SDS011;13997;48.902;12.472;2022-07-10T04:29:37;9.52;;;4.95;;
26271;SDS011;13997;48.902;12.472;2022-07-10T04:32:03;9.25;;;4.38;;
26271;SDS011;13997;48.902;12.472;2022-07-10T04:34:29;9.35;;;4.63;;
26271;SDS011;13997;48.902;12.472;2022-07-10T04:36:55;12.00;;;4.38;;
26271;SDS011;13997;48.902;12.472;2022-07-10T04:39:21;11.18;;;3.92;;
26271;SDS011;13997;48.902;12.472;2022-07-10T04:41:47;6.03;;;3.67;;
26271;SDS011;13997;48.902;12.472;2022-07-10T04:44:13;8.07;;;3.30;;
26271;SDS011;13997;48.902;12.472;2022-07-10T04:46:39;7.57;;;3.25;;
26271;SDS011;13997;48.902;12.472;2022-07-10T04:49:05;9.45;;;3.47;;
26271;SDS011;13997;48.902;12.472;2022-07-10T04:51:31;7.88;;;3.20;;
26271;SDS011;13997;48.902;12.472;2022-07-10T04:53:57;4.72;;;3.30;;
26271;SDS011;13997;48.902;12.472;2022-07-10T04:56:23;5.60;;;3.10;;
26271;SDS011;13997;48.902;12.472;2022-07-10T04:58:49;5.35;;;3.17;;
26271;SDS011;13997;48.902;12.472;2022-07-10T05:01:15;7.50;;;3.20;;
26271;SDS011;13997;48.902;12.472;2022-07-10T05:03:41;4.72;;;3.10;;
26271;SDS011;13997;48.902;12.472;2022-07-10T05:06:08;5.82;;;3.00;;
26271;SDS011;13997;48.902;12.472;2022-07-10T05:08:34;6.35;;;3.10;;
26271;SDS011;13997;48.902;12.472;2022-07-10T05:11:02;5.18;;;3.28;;
26271;SDS011;13997;48.902;12.472;2022-07-10T05:13:28;5.28;;;2.97;;
26271;SDS011;13997;48.902;12.472;2022-07-10T05:15:55;6.25;;;3.00;;
26271;SDS011;13997;48.902;12.472;2022-07-10T05:18:21;3.88;;;2.60;;
26271;SDS011;13997;48.902;12.472;2022-07-10T05:20:47;5.72;;;2.78;;
26271;SDS011;13997;48.902;12.472;2022-07-10T05:23:14;7.20;;;2.72;;
26271;SDS011;13997;48.902;12.472;2022-07-10T05:25:40;6.32;;;2.90;;
26271;SDS011;13997;48.902;12.472;2022-07-10T05:28:06;5.13;;;3.03;;
26271;SDS011;13997;48.902;12.472;2022-07-10T05:30:32;6.70;;;2.95;;
26271;SDS011;13997;48.902;12.472;2022-07-10T05:32:58;4.97;;;2.80;;
26271;SDS011;13997;48.902;12.472;2022-07-10T05:35:25;4.35;;;2.95;;
26271;SDS011;13997;48.902;12.472;2022-07-10T05:37:51;4.88;;;2.95;;
26271;SDS011;13997;48.902;12.472;2022-07-10T05:40:17;5.93;;;2.38;;
26271;SDS011;13997;48.902;12.472;2022-07-10T05:42:43;6.03;;;2.63;;
26271;SDS011;13997;48.902;12.472;2022-07-10T05:45:10;5.72;;;2.80;;
26271;SDS011;13997;48.902;12.472;2022-07-10T05:47:36;5.80;;;3.33;;
26271;SDS011;13997;48.902;12.472;2022-07-10T05:50:02;5.85;;;2.40;;
26271;SDS011;13997;48.902;12.472;2022-07-10T05:52:28;4.80;;;2.35;;
26271;SDS011;13997;48.902;12.472;2022-07-10T05:54:57;6.13;;;3.08;;
26271;SDS011;13997;48.902;12.472;2022-07-10T05:57:24;4.07;;;2.50;;
26271;SDS011;13997;48.902;12.472;2022-07-10T05:59:50;8.30;;;2.85;;
26271;SDS011;13997;48.902;12.472;2022-07-10T06:02:17;5.72;;;2.50;;
26271;SDS011;13997;48.902;12.472;2022-07-10T06:04:44;5.05;;;2.30;;
26271;SDS011;13997;48.902;12.472;2022-07-10T06:07:10;6.90;;;2.20;;
26271;SDS011;13997;48.902;12.472;2022-07-10T06:09:36;5.63;;;2.15;;
26271;SDS011;13997;48.902;12.472;2022-07-10T06:12:02;6.25;;;2.10;;
26271;SDS011;13997;48.902;12.472;2022-07-10T06:14:28;6.70;;;2.25;;
26271;SDS011;13997;48.902;12.472;2022-07-10T06:16:54;6.40;;;1.85;;
26271;SDS011;13997;48.902;12.472;2022-07-10T06:19:20;3.83;;;1.65;;
26271;SDS011;13997;48.902;12.472;2022-07-10T06:21:46;6.93;;;1.98;;
26271;SDS011;13997;48.902;12.472;2022-07-10T06:24:12;7.32;;;2.67;;
26271;SDS011;13997;48.902;12.472;2022-07-10T06:26:38;6.68;;;1.77;;
26271;SDS011;13997;48.902;12.472;2022-07-10T06:29:04;5.65;;;1.52;;
26271;SDS011;13997;48.902;12.472;2022-07-10T06:31:30;9.45;;;2.08;;
26271;SDS011;13997;48.902;12.472;2022-07-10T06:33:56;9.27;;;1.63;;
26271;SDS011;13997;48.902;12.472;2022-07-10T06:36:22;8.57;;;1.48;;
26271;SDS011;13997;48.902;12.472;2022-07-10T06:38:48;9.45;;;1.60;;
26271;SDS011;13997;48.902;12.472;2022-07-10T06:41:14;4.38;;;1.40;;
26271;SDS011;13997;48.902;12.472;2022-07-10T06:43:40;10.43;;;1.83;;
26271;SDS011;13997;48.902;12.472;2022-07-10T06:46:06;9.30;;;2.03;;
26271;SDS011;13997;48.902;12.472;2022-07-10T06:48:32;8.82;;;1.70;;
26271;SDS011;13997;48.902;12.472;2022-07-10T06:51:00;6.85;;;1.58;;
26271;SDS011;13997;48.902;12.472;2022-07-10T06:53:26;6.93;;;1.52;;
26271;SDS011;13997;48.902;12.472;2022-07-10T06:55:53;5.70;;;1.67;;
26271;SDS011;13997;48.902;12.472;2022-07-10T06:58:19;4.75;;;1.40;;
26271;SDS011;13997;48.902;12.472;2022-07-10T07:00:45;8.30;;;1.98;;
26271;SDS011;13997;48.902;12.472;2022-07-10T07:03:11;7.03;;;1.52;;
26271;SDS011;13997;48.902;12.472;2022-07-10T07:05:37;7.70;;;1.48;;
26271;SDS011;13997;48.902;12.472;2022-07-10T07:08:03;4.45;;;1.30;;
26271;SDS011;13997;48.902;12.472;2022-07-10T07:10:29;7.28;;;1.00;;
26271;SDS011;13997;48.902;12.472;2022-07-10T07:12:55;9.05;;;1.50;;
26271;SDS011;13997;48.902;12.472;2022-07-10T07:15:21;6.38;;;1.52;;
26271;SDS011;13997;48.902;12.472;2022-07-10T07:17:49;10.63;;;2.13;;
26271;SDS011;13997;48.902;12.472;2022-07-10T07:20:36;6.45;;;1.35;;
26271;SDS011;13997;48.902;12.472;2022-07-10T07:23:22;8.48;;;1.60;;
26271;SDS011;13997;48.902;12.472;2022-07-10T07:25:48;5.13;;;1.40;;
26271;SDS011;13997;48.902;12.472;2022-07-10T07:28:15;8.50;;;1.42;;
26271;SDS011;13997;48.902;12.472;2022-07-10T07:30:42;9.30;;;1.20;;
26271;SDS011;13997;48.902;12.472;2022-07-10T07:33:08;6.82;;;1.27;;
26271;SDS011;13997;48.902;12.472;2022-07-10T07:35:34;5.05;;;0.98;;
26271;SDS011;13997;48.902;12.472;2022-07-10T07:38:01;3.75;;;1.00;;
26271;SDS011;13997;48.902;12.472;2022-07-10T07:40:27;10.25;;;2.00;;
26271;SDS011;13997;48.902;12.472;2022-07-10T07:42:53;5.53;;;1.42;;
26271;SDS011;13997;48.902;12.472;2022-07-10T07:45:19;6.82;;;1.00;;
26271;SDS011;13997;48.902;12.472;2022-07-10T07:47:46;4.20;;;1.20;;
26271;SDS011;13997;48.902;12.472;2022-07-10T07:50:13;4.07;;;1.20;;
26271;SDS011;13997;48.902;12.472;2022-07-10T07:52:39;5.07;;;0.95;;
26271;SDS011;13997;48.902;12.472;2022-07-10T07:55:06;4.55;;;1.40;;
26271;SDS011;13997;48.902;12.472;2022-07-10T07:57:32;6.22;;;1.10;;
26271;SDS011;13997;48.902;12.472;2022-07-10T07:59:58;4.20;;;1.15;;
26271;SDS011;13997;48.902;12.472;2022-07-10T08:02:24;6.60;;;1.50;;
26271;SDS011;13997;48.902;12.472;2022-07-10T08:04:50;4.95;;;0.98;;
26271;SDS011;13997;48.902;12.472;2022-07-10T08:07:16;5.25;;;1.10;;
26271;SDS011;13997;48.902;12.472;2022-07-10T08:09:42;10.73;;;1.80;;
26271;SDS011;13997;48.902;12.472;2022-07-10T08:12:09;5.45;;;1.10;;
26271;SDS011;13997;48.902;12.472;2022-07-10T08:14:35;6.65;;;1.35;;
26271;SDS011;13997;48.902;12.472;2022-07-10T08:17:01;5.20;;;1.10;;
26271;SDS011;13997;48.902;12.472;2022-07-10T08:19:27;4.00;;;1.20;;
26271;SDS011;13997;48.902;12.472;2022-07-10T08:21:53;9.18;;;2.15;;
26271;SDS011;13997;48.902;12.472;2022-07-10T08:24:19;4.90;;;1.10;;
26271;SDS011;13997;48.902;12.472;2022-07-10T08:26:45;6.00;;;1.20;;
26271;SDS011;13997;48.902;12.472;2022-07-10T08:29:11;5.00;;;1.40;;
26271;SDS011;13997;48.902;12.472;2022-07-10T08:31:37;4.68;;;1.30;;
26271;SDS011;13997;48.902;12.472;2022-07-10T08:34:04;3.85;;;0.98;;
26271;SDS011;13997;48.902;12.472;2022-07-10T08:36:30;4.25;;;1.10;;
26271;SDS011;13997;48.902;12.472;2022-07-10T08:38:56;6.88;;;1.27;;
26271;SDS011;13997;48.902;12.472;2022-07-10T08:41:26;5.22;;;0.90;;
26271;SDS011;13997;48.902;12.472;2022-07-10T08:43:52;2.70;;;1.00;;
26271;SDS011;13997;48.902;12.472;2022-07-10T08:46:18;5.35;;;1.25;;
26271;SDS011;13997;48.902;12.472;2022-07-10T08:48:46;6.00;;;1.40;;
26271;SDS011;13997;48.902;12.472;2022-07-10T08:51:14;2.45;;;0.90;;
26271;SDS011;13997;48.902;12.472;2022-07-10T08:53:42;4.75;;;0.80;;
26271;SDS011;13997;48.902;12.472;2022-07-10T08:56:09;7.30;;;1.25;;
26271;SDS011;13997;48.902;12.472;2022-07-10T08:58:35;8.43;;;1.48;;
26271;SDS011;13997;48.902;12.472;2022-07-10T09:01:02;5.82;;;1.23;;
26271;SDS011;13997;48.902;12.472;2022-07-10T09:03:29;5.05;;;0.85;;
26271;SDS011;13997;48.902;12.472;2022-07-10T09:05:56;5.80;;;1.00;;
26271;SDS011;13997;48.902;12.472;2022-07-10T09:08:26;2.85;;;0.82;;
26271;SDS011;13997;48.902;12.472;2022-07-10T09:11:12;5.68;;;1.40;;
26271;SDS011;13997;48.902;12.472;2022-07-10T09:16:27;5.97;;;1.30;;
26271;SDS011;13997;48.902;12.472;2022-07-10T09:18:54;6.17;;;1.13;;
26271;SDS011;13997;48.902;12.472;2022-07-10T09:21:20;8.75;;;1.58;;
26271;SDS011;13997;48.902;12.472;2022-07-10T09:23:46;14.55;;;1.60;;
26271;SDS011;13997;48.902;12.472;2022-07-10T09:26:13;6.97;;;1.10;;
26271;SDS011;13997;48.902;12.472;2022-07-10T09:28:39;6.88;;;1.13;;
26271;SDS011;13997;48.902;12.472;2022-07-10T09:31:05;7.65;;;1.10;;
26271;SDS011;13997;48.902;12.472;2022-07-10T09:33:31;2.22;;;0.77;;
26271;SDS011;13997;48.902;12.472;2022-07-10T09:41:22;4.03;;;1.10;;
26271;SDS011;13997;48.902;12.472;2022-07-10T09:46:17;3.70;;;0.70;;
26271;SDS011;13997;48.902;12.472;2022-07-10T09:48:44;4.63;;;1.00;;
26271;SDS011;13997;48.902;12.472;2022-07-10T09:51:10;4.40;;;1.10;;
26271;SDS011;13997;48.902;12.472;2022-07-10T09:53:43;2.03;;;0.70;;
26271;SDS011;13997;48.902;12.472;2022-07-10T09:56:10;3.97;;;0.80;;
26271;SDS011;13997;48.902;12.472;2022-07-10T09:58:37;5.70;;;0.95;;
26271;SDS011;13997;48.902;12.472;2022-07-10T10:01:03;6.28;;;1.10;;
26271;SDS011;13997;48.902;12.472;2022-07-10T10:03:33;3.10;;;0.80;;
26271;SDS011;13997;48.902;12.472;2022-07-10T10:06:15;4.72;;;1.15;;
26271;SDS011;13997;48.902;12.472;2022-07-10T10:11:07;2.08;;;1.10;;
26271;SDS011;13997;48.902;12.472;2022-07-10T10:13:34;6.03;;;0.93;;
26271;SDS011;13997;48.902;12.472;2022-07-10T10:16:00;3.00;;;0.90;;
26271;SDS011;13997;48.902;12.472;2022-07-10T11:30:13;2.05;;;0.70;;
26271;SDS011;13997;48.902;12.472;2022-07-10T11:32:39;3.28;;;0.90;;
26271;SDS011;13997;48.902;12.472;2022-07-10T11:35:14;4.15;;;0.73;;
26271;SDS011;13997;48.902;12.472;2022-07-10T11:37:50;4.03;;;1.00;;
26271;SDS011;13997;48.902;12.472;2022-07-10T11:40:16;5.82;;;1.10;;
26271;SDS011;13997;48.902;12.472;2022-07-10T11:42:47;4.28;;;0.98;;
26271;SDS011;13997;48.902;12.472;2022-07-10T11:45:20;5.20;;;0.80;;
26271;SDS011;13997;48.902;12.472;2022-07-10T11:47:46;3.85;;;0.93;;
26271;SDS011;13997;48.902;12.472;2022-07-10T11:50:12;5.85;;;1.00;;
26271;SDS011;13997;48.902;12.472;2022-07-10T11:52:38;3.00;;;0.90;;
26271;SDS011;13997;48.902;12.472;2022-07-10T11:55:18;3.72;;;0.80;;
26271;SDS011;13997;48.902;12.472;2022-07-10T11:57:45;3.05;;;0.85;;
26271;SDS011;13997;48.902;12.472;2022-07-10T12:00:32;4.30;;;0.88;;
26271;SDS011;13997;48.902;12.472;2022-07-10T12:03:15;5.80;;;1.05;;
26271;SDS011;13997;48.902;12.472;2022-07-10T12:05:41;5.97;;;0.80;;
26271;SDS011;13997;48.902;12.472;2022-07-10T12:08:07;4.53;;;0.80;;
26271;SDS011;13997;48.902;12.472;2022-07-10T12:10:33;2.63;;;0.80;;
26271;SDS011;13997;48.902;12.472;2022-07-10T12:13:06;2.88;;;0.70;;
26271;SDS011;13997;48.902;12.472;2022-07-10T12:15:34;5.40;;;0.90;;
26271;SDS011;13997;48.902;12.472;2022-07-10T12:18:02;5.68;;;0.70;;
26271;SDS011;13997;48.902;12.472;2022-07-10T12:20:28;1.55;;;0.50;;
26271;SDS011;13997;48.902;12.472;2022-07-10T12:22:54;7.00;;;0.80;;
26271;SDS011;13997;48.902;12.472;2022-07-10T12:25:20;4.28;;;1.13;;
26271;SDS011;13997;48.902;12.472;2022-07-10T12:27:46;4.75;;;0.75;;
26271;SDS011;13997;48.902;12.472;2022-07-10T12:30:12;3.75;;;0.80;;
26271;SDS011;13997;48.902;12.472;2022-07-10T12:32:38;1.77;;;0.70;;
26271;SDS011;13997;48.902;12.472;2022-07-10T12:35:05;1.88;;;0.63;;
26271;SDS011;13997;48.902;12.472;2022-07-10T12:37:46;2.85;;;1.00;;
26271;SDS011;13997;48.902;12.472;2022-07-10T12:40:24;2.85;;;0.68;;
26271;SDS011;13997;48.902;12.472;2022-07-10T12:43:00;3.25;;;0.63;;
26271;SDS011;13997;48.902;12.472;2022-07-10T12:45:27;3.00;;;0.60;;
26271;SDS011;13997;48.902;12.472;2022-07-10T12:47:53;2.22;;;0.63;;
26271;SDS011;13997;48.902;12.472;2022-07-10T12:50:19;4.18;;;0.98;;
26271;SDS011;13997;48.902;12.472;2022-07-10T12:52:45;3.60;;;0.60;;
26271;SDS011;13997;48.902;12.472;2022-07-10T13:02:48;3.80;;;0.50;;
26271;SDS011;13997;48.902;12.472;2022-07-10T13:05:31;5.15;;;0.70;;
26271;SDS011;13997;48.902;12.472;2022-07-10T13:08:05;4.30;;;0.63;;
26271;SDS011;13997;48.902;12.472;2022-07-10T13:10:44;0.98;;;0.45;;
26271;SDS011;13997;48.902;12.472;2022-07-10T13:13:11;5.95;;;0.60;;
26271;SDS011;13997;48.902;12.472;2022-07-10T13:15:37;2.40;;;0.60;;
26271;SDS011;13997;48.902;12.472;2022-07-10T13:18:12;1.20;;;0.50;;
26271;SDS011;13997;48.902;12.472;2022-07-10T13:20:38;1.98;;;0.50;;
26271;SDS011;13997;48.902;12.472;2022-07-10T13:23:04;2.63;;;0.55;;
26271;SDS011;13997;48.902;12.472;2022-07-10T13:25:30;2.63;;;0.50;;
26271;SDS011;13997;48.902;12.472;2022-07-10T13:27:56;4.13;;;0.82;;
26271;SDS011;13997;48.902;12.472;2022-07-10T13:30:22;3.15;;;0.55;;
26271;SDS011;13997;48.902;12.472;2022-07-10T13:32:48;2.35;;;0.50;;
26271;SDS011;13997;48.902;12.472;2022-07-10T13:35:14;3.22;;;0.47;;
26271;SDS011;13997;48.902;12.472;2022-07-10T13:37:40;2.50;;;0.60;;
26271;SDS011;13997;48.902;12.472;2022-07-10T13:40:07;5.07;;;0.70;;
26271;SDS011;13997;48.902;12.472;2022-07-10T13:42:33;3.35;;;0.50;;
26271;SDS011;13997;48.902;12.472;2022-07-10T13:44:59;1.80;;;0.47;;
26271;SDS011;13997;48.902;12.472;2022-07-10T13:47:25;2.75;;;0.60;;
26271;SDS011;13997;48.902;12.472;2022-07-10T13:49:51;1.27;;;0.50;;
26271;SDS011;13997;48.902;12.472;2022-07-10T13:52:17;1.60;;;0.52;;
26271;SDS011;13997;48.902;12.472;2022-07-10T13:54:43;1.48;;;0.35;;
26271;SDS011;13997;48.902;12.472;2022-07-10T13:57:09;4.55;;;0.70;;
26271;SDS011;13997;48.902;12.472;2022-07-10T13:59:35;4.32;;;0.80;;
26271;SDS011;13997;48.902;12.472;2022-07-10T14:02:01;3.67;;;0.60;;
26271;SDS011;13997;48.902;12.472;2022-07-10T14:04:27;1.92;;;0.43;;
26271;SDS011;13997;48.902;12.472;2022-07-10T14:06:53;2.85;;;0.55;;
26271;SDS011;13997;48.902;12.472;2022-07-10T14:09:19;4.68;;;0.70;;
26271;SDS011;13997;48.902;12.472;2022-07-10T14:11:48;3.63;;;0.63;;
26271;SDS011;13997;48.902;12.472;2022-07-10T14:14:14;4.28;;;0.60;;
26271;SDS011;13997;48.902;12.472;2022-07-10T14:16:40;3.30;;;0.65;;
26271;SDS011;13997;48.902;12.472;2022-07-10T14:19:08;1.23;;;0.30;;
26271;SDS011;13997;48.902;12.472;2022-07-10T14:21:34;0.65;;;0.30;;
26271;SDS011;13997;48.902;12.472;2022-07-10T14:24:00;1.73;;;0.50;;
26271;SDS011;13997;48.902;12.472;2022-07-10T14:26:27;2.63;;;0.43;;
26271;SDS011;13997;48.902;12.472;2022-07-10T14:28:53;3.58;;;0.95;;
26271;SDS011;13997;48.902;12.472;2022-07-10T14:31:20;2.15;;;0.55;;
26271;SDS011;13997;48.902;12.472;2022-07-10T14:33:46;0.90;;;0.30;;
26271;SDS011;13997;48.902;12.472;2022-07-10T14:36:13;1.17;;;0.60;;
26271;SDS011;13997;48.902;12.472;2022-07-10T14:38:39;2.17;;;0.70;;
26271;SDS011;13997;48.902;12.472;2022-07-10T14:41:05;2.90;;;0.50;;
26271;SDS011;13997;48.902;12.472;2022-07-10T14:43:31;3.00;;;0.63;;
26271;SDS011;13997;48.902;12.472;2022-07-10T14:45:59;2.88;;;0.60;;
26271;SDS011;13997;48.902;12.472;2022-07-10T14:48:31;1.30;;;0.30;;
26271;SDS011;13997;48.902;12.472;2022-07-10T14:50:58;2.25;;;0.43;;
26271;SDS011;13997;48.902;12.472;2022-07-10T14:53:24;1.35;;;0.40;;
26271;SDS011;13997;48.902;12.472;2022-07-10T14:55:50;1.52;;;0.68;;
26271;SDS011;13997;48.902;12.472;2022-07-10T14:58:16;2.35;;;0.60;;
26271;SDS011;13997;48.902;12.472;2022-07-10T15:00:42;1.85;;;0.50;;
26271;SDS011;13997;48.902;12.472;2022-07-10T15:03:08;0.85;;;0.40;;
26271;SDS011;13997;48.902;12.472;2022-07-10T15:05:34;2.00;;;0.50;;
26271;SDS011;13997;48.902;12.472;2022-07-10T15:08:01;2.22;;;0.40;;
26271;SDS011;13997;48.902;12.472;2022-07-10T15:10:29;0.98;;;0.40;;
26271;SDS011;13997;48.902;12.472;2022-07-10T15:12:57;1.60;;;0.40;;
26271;SDS011;13997;48.902;12.472;2022-07-10T15:15:24;2.28;;;0.50;;
26271;SDS011;13997;48.902;12.472;2022-07-10T15:17:50;1.90;;;0.40;;
26271;SDS011;13997;48.902;12.472;2022-07-10T15:20:16;4.22;;;0.30;;
26271;SDS011;13997;48.902;12.472;2022-07-10T15:22:44;0.52;;;0.35;;
26271;SDS011;13997;48.902;12.472;2022-07-10T15:25:10;3.10;;;0.40;;
26271;SDS011;13997;48.902;12.472;2022-07-10T15:27:36;2.95;;;0.30;;
26271;SDS011;13997;48.902;12.472;2022-07-10T15:30:02;2.63;;;0.40;;
26271;SDS011;13997;48.902;12.472;2022-07-10T15:32:29;2.15;;;0.50;;
26271;SDS011;13997;48.902;12.472;2022-07-10T15:34:55;1.63;;;0.40;;
26271;SDS011;13997;48.902;12.472;2022-07-10T15:37:21;3.38;;;0.60;;
26271;SDS011;13997;48.902;12.472;2022-07-10T15:39:48;2.80;;;0.40;;
26271;SDS011;13997;48.902;12.472;2022-07-10T15:42:14;2.65;;;0.50;;
26271;SDS011;13997;48.902;12.472;2022-07-10T15:44:40;3.13;;;0.50;;
26271;SDS011;13997;48.902;12.472;2022-07-10T15:47:06;1.50;;;0.55;;
26271;SDS011;13997;48.902;12.472;2022-07-10T15:49:32;4.00;;;0.45;;
26271;SDS011;13997;48.902;12.472;2022-07-10T15:51:58;5.47;;;0.68;;
26271;SDS011;13997;48.902;12.472;2022-07-10T15:54:25;1.80;;;0.45;;
26271;SDS011;13997;48.902;12.472;2022-07-10T15:56:51;1.58;;;0.47;;
26271;SDS011;13997;48.902;12.472;2022-07-10T15:59:17;5.10;;;0.50;;
26271;SDS011;13997;48.902;12.472;2022-07-10T16:01:47;4.28;;;0.77;;
26271;SDS011;13997;48.902;12.472;2022-07-10T16:04:13;0.98;;;0.40;;